Accueil
METAR-TAF:

METAR-TAF

Aéroports :

Vanua Lava, Vanuatu

latitude: 13-51-06S, longitude: 167-32-13E, altitude: 2 m

Observation

Le bulletin a été fait il y a 11 heures et 36 minutes, à 06:00 UTC
Vent calme
Température 29°C
Humidité 89%
Pression 1007 hPa
Visibilité 10 km ou plus
Nuages fragmentés à une hauteur de 2000 ft

METAR: NVSC 190600Z 00000KT 9999 BKN020 29/27 Q1007

Heure: 04:36 (17:36 UTC)

Prévision

Le bulletin a été fait il y a 6 heures et 36 minutes, à 11:00 UTC
Prévision valable du 19 à 12 UTC au 20 à 12 UTC
Vent 5 kt de nord-ouest
Visibilité: 9000 m
Nuages épars à une hauteur de 2000 ft
Nuages fragmentés à une hauteur de 4000 ft
Nuages épars à une hauteur de 1200 ft
Nuages fragmentés à une hauteur de 1800 ft
averses de pluie,

TAF: NVSC 191100Z 1912/2012 32005KT 9999 SCT020 BKN040 INTER 1912/1918 9000 SHRA SCT012 BKN018

Observations et prévisions météorologiques de plus de 4000 aéroports (messages METAR et TAF).

Les stations disponibles sont représentées par des disques jaunes et rouges sur la carte.

Passer la souris dessus pour voir le nom de la station.

Cliquer dessus pour voir les observations et prévisions météorologiques.

Pour changer de carte: cliquez sur les boutons verts avec une croix noire pour zoomer, sur le bouton vert avec un tiret pour effectuer un zoom arrière, ou sur les flèches vertes pour les cartes adjacentes.


METAR-TAF: